L'a Kai — 6YRU2 — position and weather

sailwx.info

Track history (hours):
 
Tides and Currents Weather Stations Pressure Air Temp Water Temp Dewpoint Dewpoint Depression Visibility Wind Speed Wind Dir Waves Ship Positions

L'a Kai

Last reported at 2017-Aug-30 22:58 UTC. Time now 2017-Sep-25 11:48 UTC.
Position N 26°15' W 079°59'.
Warning: this ship's position is 25 days out of date.

Length 11 m.

MMSI: 339344000.

Date/timePositionNaut miles runAvg speedWind from/ knotsBaromVisibWave heightAir tempDewpointWater temp
2017-Aug-30 22:58N 26°15' W 079°59'811.6
2017-Aug-30 22:16N 26°10' W 079°52'514.8
2017-Aug-30 21:58N 26°06' W 079°49'1 2.4
2017-Aug-30 21:27N 26°05' W 079°49'4 5.9
2017-Aug-30 20:46N 26°01' W 079°48'4 2.7
2017-Aug-30 19:12N 25°57' W 079°49'1 3.6
2017-Aug-30 18:48N 25°55' W 079°49'2 5.6
2017-Aug-30 18:28N 25°54' W 079°49'0 1.0
2017-Aug-30 18:00N 25°53' W 079°49'5 7.8
2017-Aug-30 17:21N 25°49' W 079°53'1233.7
2017-Aug-30 16:59N 25°45' W 080°06'3 5.3
2017-Aug-30 16:30N 25°46' W 080°08'1 2.7
2017-Aug-30 15:59N 25°48' W 080°09'0 0.0
2017-Aug-30 15:26N 25°48' W 080°09'0 0.0
2017-Aug-30 14:59N 25°48' W 080°09'0 0.0
2017-Aug-30 14:29N 25°48' W 080°09'0 0.0
2017-Aug-30 13:59N 25°48' W 080°09'0 0.0
2017-Aug-30 13:29N 25°48' W 080°09'0 0.0
2017-Aug-30 12:59N 25°48' W 080°09'0 0.0
2017-Aug-30 12:29N 25°48' W 080°09'0 0.0
2017-Aug-30 11:59N 25°48' W 080°09'0 0.0
2017-Aug-30 11:26N 25°48' W 080°09'0 0.0
2017-Aug-30 10:59N 25°48' W 080°09'0 0.0
2017-Aug-30 10:23N 25°48' W 080°09'0 0.0
2017-Aug-30 09:56N 25°48' W 080°09'0 0.0
2017-Aug-30 09:26N 25°48' W 080°09'0 0.0
2017-Aug-30 08:59N 25°48' W 080°09'0 0.0
2017-Aug-30 08:29N 25°48' W 080°09'0 0.0
2017-Aug-30 07:50N 25°48' W 080°09'0 0.0
2017-Aug-30 07:26N 25°48' W 080°09'0 0.0
2017-Aug-30 06:59N 25°48' W 080°09'0 0.0
2017-Aug-30 06:29N 25°48' W 080°09'0 0.0
2017-Aug-30 05:59N 25°48' W 080°09'0 0.0
2017-Aug-30 05:23N 25°48' W 080°09'0 0.0
2017-Aug-30 04:59N 25°48' W 080°09'0 0.0
2017-Aug-30 04:29N 25°48' W 080°09'0 0.0
2017-Aug-30 03:56N 25°48' W 080°09'0 0.0
2017-Aug-30 03:29N 25°48' W 080°09'0 0.0
2017-Aug-30 02:53N 25°48' W 080°09'0 0.0
2017-Aug-30 02:26N 25°48' W 080°09'0 0.0
2017-Aug-30 01:59N 25°48' W 080°09'0 0.0
2017-Aug-30 01:29N 25°48' W 080°09'0 0.0
2017-Aug-30 00:53N 25°48' W 080°09'0 0.0
2017-Aug-30 00:29N 25°48' W 080°09'0 0.0
2017-Aug-29 23:53N 25°48' W 080°09'0 0.0
2017-Aug-29 23:20N 25°48' W 080°09'0 0.0
2017-Aug-29 22:56N 25°48' W 080°09'0 0.0
2017-Aug-29 22:26N 25°48' W 080°09'0 0.0
2017-Aug-29 21:59N 25°48' W 080°09'0 0.0
2017-Aug-29 21:23N 25°48' W 080°09'0 0.0
2017-Aug-29 20:59N 25°48' W 080°09'0 0.0
2017-Aug-29 20:29N 25°48' W 080°09'0 0.0
2017-Aug-29 19:59N 25°48' W 080°09'0 0.0
2017-Aug-29 19:29N 25°48' W 080°09'0 0.0
2017-Aug-29 18:59N 25°48' W 080°09'0 0.0
2017-Aug-29 18:29N 25°48' W 080°09'0 0.0
2017-Aug-29 17:59N 25°48' W 080°09'0 0.0
2017-Aug-29 17:29N 25°48' W 080°09'0 0.0
2017-Aug-29 16:59N 25°48' W 080°09'0 0.0
2017-Aug-29 16:29N 25°48' W 080°09'0 0.0
2017-Aug-29 15:59N 25°48' W 080°09'0 0.0
2017-Aug-29 15:29N 25°48' W 080°09'0 0.0
2017-Aug-29 14:59N 25°48' W 080°09'0 0.0
2017-Aug-29 14:29N 25°48' W 080°09'0 0.0
2017-Aug-29 13:56N 25°48' W 080°09'0 0.0
2017-Aug-29 13:29N 25°48' W 080°09'0 0.0
2017-Aug-29 12:59N 25°48' W 080°09'0 0.0
2017-Aug-29 12:29N 25°48' W 080°09'0 0.0
2017-Aug-29 11:59N 25°48' W 080°09'0 0.0
2017-Aug-29 11:29N 25°48' W 080°09'0 0.0
2017-Aug-29 10:59N 25°48' W 080°09'0 0.0
2017-Aug-29 10:29N 25°48' W 080°09'0 0.0
2017-Aug-29 09:59N 25°48' W 080°09'0 0.0
2017-Aug-29 09:29N 25°48' W 080°09'0 0.0
2017-Aug-29 08:59N 25°48' W 080°09'0 0.0
2017-Aug-29 08:26N 25°48' W 080°09'0 0.0
2017-Aug-29 07:59N 25°48' W 080°09'0 0.0
2017-Aug-29 07:29N 25°48' W 080°09'0 0.0
2017-Aug-29 06:56N 25°48' W 080°09'0 0.0
2017-Aug-29 06:26N 25°48' W 080°09'0 0.0
2017-Aug-29 05:59N 25°48' W 080°09'0 0.0
2017-Aug-29 05:29N 25°48' W 080°09'0 0.0
2017-Aug-29 04:53N 25°48' W 080°09'0 0.0
2017-Aug-29 04:29N 25°48' W 080°09'0 0.0
2017-Aug-29 03:56N 25°48' W 080°09'0 0.0
2017-Aug-29 03:29N 25°48' W 080°09'0 0.0
2017-Aug-29 02:59N 25°48' W 080°09'0 0.0
2017-Aug-29 02:17N 25°48' W 080°09'0 0.0
2017-Aug-29 01:59N 25°48' W 080°09'0 0.0
2017-Aug-29 01:29N 25°48' W 080°09'0 0.0
2017-Aug-29 00:59N 25°48' W 080°09'0 0.0
2017-Aug-29 00:29N 25°48' W 080°09'0 0.0
2017-Aug-28 23:50N 25°48' W 080°09'0 0.0
2017-Aug-28 23:26N 25°48' W 080°09'0 0.0
2017-Aug-28 22:59N 25°48' W 080°09'0 0.0
2017-Aug-28 22:29N 25°48' W 080°09'0 0.0
2017-Aug-28 21:56N 25°48' W 080°09'0 0.0
2017-Aug-28 21:29N 25°48' W 080°09'0 0.0
2017-Aug-28 20:59N 25°48' W 080°09'0 0.0
2017-Aug-28 20:29N 25°48' W 080°09'0 0.0
2017-Aug-28 19:59N 25°48' W 080°09'0 0.0
2017-Aug-28 19:29N 25°48' W 080°09'0 0.0
2017-Aug-28 18:59N 25°48' W 080°09'0 0.0
2017-Aug-28 18:26N 25°48' W 080°09'0 0.0
2017-Aug-28 17:59N 25°48' W 080°09'0 0.0
2017-Aug-28 17:26N 25°48' W 080°09'0 0.0
2017-Aug-28 16:59N 25°48' W 080°09'0 0.0
2017-Aug-28 16:29N 25°48' W 080°09'0 0.0
2017-Aug-28 15:53N 25°48' W 080°09'0 0.0
2017-Aug-28 15:29N 25°48' W 080°09'0 0.0
2017-Aug-28 14:59N 25°48' W 080°09'0 0.0
2017-Aug-28 14:23N 25°48' W 080°09'0 0.0
2017-Aug-28 13:59N 25°48' W 080°09'0 0.0
2017-Aug-28 13:29N 25°48' W 080°09'0 0.0
2017-Aug-28 12:59N 25°48' W 080°09'0 0.0
2017-Aug-28 12:29N 25°48' W 080°09'0 0.0
2017-Aug-28 11:53N 25°48' W 080°09'0 0.0
2017-Aug-28 11:26N 25°48' W 080°09'0 0.0
2017-Aug-28 10:59N 25°48' W 080°09'0 0.0
2017-Aug-28 10:29N 25°48' W 080°09'0 0.0
2017-Aug-28 09:59N 25°48' W 080°09'0 0.0
2017-Aug-28 09:29N 25°48' W 080°09'0 0.0
2017-Aug-28 08:59N 25°48' W 080°09'0 0.0
2017-Aug-28 08:29N 25°48' W 080°09'0 0.0
2017-Aug-28 07:59N 25°48' W 080°09'0 0.0
2017-Aug-28 07:26N 25°48' W 080°09'0 0.0
2017-Aug-28 06:56N 25°48' W 080°09'0 0.0
2017-Aug-28 06:29N 25°48' W 080°09'0 0.0
2017-Aug-28 05:59N 25°48' W 080°09'0 0.0
2017-Aug-28 05:29N 25°48' W 080°09'0 0.0
2017-Aug-28 04:59N 25°48' W 080°09'0 0.0
2017-Aug-28 04:23N 25°48' W 080°09'0 0.0
2017-Aug-28 03:59N 25°48' W 080°09'0 0.0
2017-Aug-28 03:29N 25°48' W 080°09'0 0.0
2017-Aug-28 02:56N 25°48' W 080°09'0 0.0
2017-Aug-28 02:29N 25°48' W 080°09'0 0.0
2017-Aug-28 01:53N 25°48' W 080°09'0 0.0
2017-Aug-28 01:29N 25°48' W 080°09'0 0.0
2017-Aug-28 00:59N 25°48' W 080°09'0 0.0
2017-Aug-28 00:29N 25°48' W 080°09'0 0.0
2017-Aug-27 23:59N 25°48' W 080°09'0 0.0
2017-Aug-27 23:29N 25°48' W 080°09'0 0.0
2017-Aug-27 22:59N 25°48' W 080°09'0 0.0
2017-Aug-27 22:29N 25°48' W 080°09'0 0.0
2017-Aug-27 21:56N 25°48' W 080°09'0 0.0
2017-Aug-27 21:29N 25°48' W 080°09'0 0.0
2017-Aug-27 20:59N 25°48' W 080°09'0 0.0
2017-Aug-27 20:29N 25°48' W 080°09'0 0.0
2017-Aug-27 19:59N 25°48' W 080°09'0 0.0
2017-Aug-27 19:26N 25°48' W 080°09'0 0.0
2017-Aug-27 18:59N 25°48' W 080°09'0 0.0
2017-Aug-27 18:26N 25°48' W 080°09'0 0.0
2017-Aug-27 17:59N 25°48' W 080°09'0 0.0
2017-Aug-27 17:29N 25°48' W 080°09'0 0.0
2017-Aug-27 16:59N 25°48' W 080°09'0 0.0
2017-Aug-27 16:23N 25°48' W 080°09'0 0.0
2017-Aug-27 15:53N 25°48' W 080°09'0 0.0
2017-Aug-27 15:26N 25°48' W 080°09'0 0.0
2017-Aug-27 14:59N 25°48' W 080°09'0 0.0
2017-Aug-27 14:29N 25°48' W 080°09'0 0.0
2017-Aug-27 13:56N 25°48' W 080°09'0 0.0
2017-Aug-27 13:29N 25°48' W 080°09'0 0.0
2017-Aug-27 12:59N 25°48' W 080°09'0 0.0
2017-Aug-27 12:29N 25°48' W 080°09'0 0.0
2017-Aug-27 11:44N 25°48' W 080°09'0 0.0
2017-Aug-27 11:26N 25°48' W 080°09'0 0.0
2017-Aug-27 10:59N 25°48' W 080°09'0 0.0
2017-Aug-27 10:29N 25°48' W 080°09'0 0.0
2017-Aug-27 09:59N 25°48' W 080°09'0 0.0
2017-Aug-27 09:29N 25°48' W 080°09'0 0.0
2017-Aug-27 08:59N 25°48' W 080°09'0 0.0
2017-Aug-27 08:29N 25°48' W 080°09'0 0.0
2017-Aug-27 07:56N 25°48' W 080°09'0 0.0
2017-Aug-27 07:29N 25°48' W 080°09'0 0.0
2017-Aug-27 06:59N 25°48' W 080°09'0 0.0
2017-Aug-27 06:29N 25°48' W 080°09'0 0.0
2017-Aug-27 05:59N 25°48' W 080°09'0 0.0
2017-Aug-27 05:29N 25°48' W 080°09'0 0.0
2017-Aug-27 04:59N 25°48' W 080°09'0 0.0
2017-Aug-27 04:23N 25°48' W 080°09'0 0.0
2017-Aug-27 03:56N 25°48' W 080°09'0 0.0
2017-Aug-27 03:29N 25°48' W 080°09'0 0.0
2017-Aug-27 02:59N 25°48' W 080°09'0 0.0
2017-Aug-27 02:23N 25°48' W 080°09'0 0.0
2017-Aug-27 01:56N 25°48' W 080°09'0 0.0
2017-Aug-27 01:29N 25°48' W 080°09'0 0.0
2017-Aug-27 00:59N 25°48' W 080°09'0 0.0
2017-Aug-27 00:23N 25°48' W 080°09'0 0.0
2017-Aug-26 23:59N 25°48' W 080°09'0 0.0
2017-Aug-26 23:20N 25°48' W 080°09'0 0.0
2017-Aug-26 22:56N 25°48' W 080°09'0 0.0
2017-Aug-26 22:29N 25°48' W 080°09'0 0.0
2017-Aug-26 21:59N 25°48' W 080°09'0 0.0
2017-Aug-26 21:29N 25°48' W 080°09'0 0.0
2017-Aug-26 20:59N 25°48' W 080°09'0 0.0
2017-Aug-26 20:29N 25°48' W 080°09'0 0.0
2017-Aug-26 19:59N 25°48' W 080°09'0 0.0
2017-Aug-26 19:29N 25°48' W 080°09'0 0.0
2017-Aug-26 18:59N 25°48' W 080°09'0 0.0
2017-Aug-26 18:23N 25°48' W 080°09'0 0.0
2017-Aug-26 17:59N 25°48' W 080°09'0 0.0
2017-Aug-26 17:26N 25°48' W 080°09'0 0.0
2017-Aug-26 16:56N 25°48' W 080°09'0 0.0
2017-Aug-26 16:26N 25°48' W 080°09'0 0.0
2017-Aug-26 15:59N 25°48' W 080°09'0 0.0
2017-Aug-26 15:29N 25°48' W 080°09'0 0.0
2017-Aug-26 14:59N 25°48' W 080°09'0 0.0
2017-Aug-26 13:59N 25°48' W 080°09'0 0.0
2017-Aug-26 13:26N 25°48' W 080°09'0 0.0
2017-Aug-26 12:59N 25°48' W 080°09'0 0.0
2017-Aug-26 12:29N 25°48' W 080°09'0 0.0
2017-Aug-26 11:56N 25°48' W 080°09'0 0.0
2017-Aug-26 11:26N 25°48' W 080°09'0 0.0
2017-Aug-26 10:50N 25°48' W 080°09'0 0.0
2017-Aug-26 10:26N 25°48' W 080°09'0 0.0
2017-Aug-26 09:59N 25°48' W 080°09'0 0.0
2017-Aug-26 09:23N 25°48' W 080°09'0 0.0
2017-Aug-26 08:59N 25°48' W 080°09'0 0.0
2017-Aug-26 08:29N 25°48' W 080°09'0 0.0
2017-Aug-26 07:59N 25°48' W 080°09'0 0.0
2017-Aug-26 07:23N 25°48' W 080°09'0 0.0
2017-Aug-26 06:56N 25°48' W 080°09'0 0.0
2017-Aug-26 06:29N 25°48' W 080°09'0 0.0
2017-Aug-26 05:59N 25°48' W 080°09'0 0.0
2017-Aug-26 05:29N 25°48' W 080°09'0 0.0
2017-Aug-26 04:59N 25°48' W 080°09'0 0.0
2017-Aug-26 04:26N 25°48' W 080°09'0 0.0
2017-Aug-26 03:59N 25°48' W 080°09'0 0.0
2017-Aug-26 03:26N 25°48' W 080°09'0 0.0
2017-Aug-26 02:59N 25°48' W 080°09'0 0.0
2017-Aug-26 02:23N 25°48' W 080°09'0 0.0
2017-Aug-26 01:59N 25°48' W 080°09'0 0.0
2017-Aug-26 01:29N 25°48' W 080°09'0 0.0
2017-Aug-26 00:50N 25°48' W 080°09'0 0.0
2017-Aug-26 00:29N 25°48' W 080°09'0 0.0
2017-Aug-25 23:59N 25°48' W 080°09'0 0.0
2017-Aug-25 23:26N 25°48' W 080°09'0 0.0
2017-Aug-25 22:56N 25°48' W 080°09'0 0.0
2017-Aug-25 22:29N 25°48' W 080°09'0 0.0
2017-Aug-25 21:59N 25°48' W 080°09'0 0.0
2017-Aug-25 21:29N 25°48' W 080°09'0 0.0
2017-Aug-25 20:56N 25°48' W 080°09'0 0.0
2017-Aug-25 20:26N 25°48' W 080°09'0 0.0
2017-Aug-25 19:59N 25°48' W 080°09'0 0.0
2017-Aug-25 19:29N 25°48' W 080°09'0 0.0
2017-Aug-25 18:59N 25°48' W 080°09'0 0.0
2017-Aug-25 18:29N 25°48' W 080°09'0 0.0
2017-Aug-25 17:59N 25°48' W 080°09'0 0.0
2017-Aug-25 17:29N 25°48' W 080°09'0 0.0
2017-Aug-25 16:59N 25°48' W 080°09'0 0.0
2017-Aug-25 16:26N 25°48' W 080°09'0 0.0
2017-Aug-25 15:59N 25°48' W 080°09'0 0.0
2017-Aug-25 15:29N 25°48' W 080°09'0 0.0
2017-Aug-25 14:59N 25°48' W 080°09'0 0.0
2017-Aug-25 13:59N 25°48' W 080°09'0 0.0
2017-Aug-25 13:29N 25°48' W 080°09'0 0.0
2017-Aug-25 12:59N 25°48' W 080°09'0 0.0
2017-Aug-25 12:23N 25°48' W 080°09'0 0.0
2017-Aug-25 11:56N 25°48' W 080°09'0 0.0
2017-Aug-25 11:26N 25°48' W 080°09'0 0.0
2017-Aug-25 10:53N 25°48' W 080°09'0 0.0
2017-Aug-25 10:29N 25°48' W 080°09'0 0.0
2017-Aug-25 09:56N 25°48' W 080°09'0 0.0
2017-Aug-25 09:29N 25°48' W 080°09'0 0.0
2017-Aug-25 08:59N 25°48' W 080°09'0 0.0
2017-Aug-25 08:26N 25°48' W 080°09'0 0.0
2017-Aug-25 07:59N 25°48' W 080°09'0 0.0
2017-Aug-25 07:23N 25°48' W 080°09'0 0.0
2017-Aug-25 06:59N 25°48' W 080°09'0 0.0
2017-Aug-25 06:29N 25°48' W 080°09'0 0.0
2017-Aug-25 05:59N 25°48' W 080°09'0 0.0
2017-Aug-25 05:29N 25°48' W 080°09'0 0.0
2017-Aug-25 04:59N 25°48' W 080°09'0 0.0
2017-Aug-25 04:26N 25°48' W 080°09'0 0.0
2017-Aug-25 03:56N 25°48' W 080°09'0 0.0
2017-Aug-25 03:29N 25°48' W 080°09'0 0.0
2017-Aug-25 02:59N 25°48' W 080°09'0 0.0
2017-Aug-25 02:29N 25°48' W 080°09'0 0.0
2017-Aug-25 01:59N 25°48' W 080°09'0 0.0
2017-Aug-25 01:29N 25°48' W 080°09'0 0.0
2017-Aug-25 00:59N 25°48' W 080°09'0 0.0
2017-Aug-25 00:29N 25°48' W 080°09'0 0.0
2017-Aug-24 23:59N 25°48' W 080°09'0 0.0
2017-Aug-24 23:26N 25°48' W 080°09'0 0.0
2017-Aug-24 22:56N 25°48' W 080°09'0 0.0
2017-Aug-24 22:08N 25°48' W 080°09'0 0.0
2017-Aug-24 21:56N 25°48' W 080°09'0 0.0
2017-Aug-24 21:23N 25°48' W 080°09'0 0.0
2017-Aug-24 20:59N 25°48' W 080°09'0 0.0
2017-Aug-24 20:29N 25°48' W 080°09'0 0.0
2017-Aug-24 19:59N 25°48' W 080°09'0 0.0
2017-Aug-24 19:29N 25°48' W 080°09'0 0.0
2017-Aug-24 18:56N 25°48' W 080°09'0 0.0
2017-Aug-24 18:29N 25°48' W 080°09'0 0.0
2017-Aug-24 17:56N 25°48' W 080°09'0 0.0
2017-Aug-24 17:26N 25°48' W 080°09'0 0.0
2017-Aug-24 16:59N 25°48' W 080°09'0 0.0
2017-Aug-24 16:29N 25°48' W 080°09'0 0.0
2017-Aug-24 15:59N 25°48' W 080°09'0 0.0
2017-Aug-24 15:26N 25°48' W 080°09'0 0.0
2017-Aug-24 14:59N 25°48' W 080°09'0 0.0
2017-Aug-24 14:29N 25°48' W 080°09'0 0.0
2017-Aug-24 13:59N 25°48' W 080°09'0 0.0
2017-Aug-24 13:29N 25°48' W 080°09'0 0.0
2017-Aug-24 12:59N 25°48' W 080°09'0 0.0
2017-Aug-24 12:29N 25°48' W 080°09'0 0.0
2017-Aug-24 11:56N 25°48' W 080°09'0 0.0
2017-Aug-24 11:29N 25°48' W 080°09'0 0.0
2017-Aug-24 10:59N 25°48' W 080°09'0 0.0
2017-Aug-24 10:29N 25°48' W 080°09'0 0.0
2017-Aug-24 09:44N 25°48' W 080°09'0 0.0
2017-Aug-24 09:29N 25°48' W 080°09'0 0.0
2017-Aug-24 08:59N 25°48' W 080°09'0 0.0
2017-Aug-24 08:20N 25°48' W 080°09'0 0.0
2017-Aug-24 07:59N 25°48' W 080°09'0 0.0
2017-Aug-24 07:29N 25°48' W 080°09'0 0.0
2017-Aug-24 06:59N 25°48' W 080°09'0 0.0
2017-Aug-24 06:29N 25°48' W 080°09'0 0.0
2017-Aug-24 05:56N 25°48' W 080°09'0 0.0
2017-Aug-24 05:29N 25°48' W 080°09'0 0.0
2017-Aug-24 04:59N 25°48' W 080°09'0 0.0
2017-Aug-24 04:26N 25°48' W 080°09'0 0.0
2017-Aug-24 03:59N 25°48' W 080°09'0 0.0
2017-Aug-24 03:29N 25°48' W 080°09'0 0.0
2017-Aug-24 02:59N 25°48' W 080°09'0 0.0
2017-Aug-24 02:29N 25°48' W 080°09'0 0.0
2017-Aug-24 01:53N 25°48' W 080°09'0 0.0
2017-Aug-24 01:29N 25°48' W 080°09'0 0.0
2017-Aug-24 00:59N 25°48' W 080°09'0 0.0
2017-Aug-24 00:29N 25°48' W 080°09'0 0.0
2017-Aug-23 23:56N 25°48' W 080°09'0 0.0
2017-Aug-23 23:29N 25°48' W 080°09'0 0.0
2017-Aug-23 22:59N 25°48' W 080°09'0 0.0
2017-Aug-23 22:29N 25°48' W 080°09'0 0.0
2017-Aug-23 21:59N 25°48' W 080°09'0 0.0
2017-Aug-23 21:20N 25°48' W 080°09'0 0.0
2017-Aug-23 20:56N 25°48' W 080°09'0 0.0
2017-Aug-23 20:26N 25°48' W 080°09'0 0.0
2017-Aug-23 19:53N 25°48' W 080°09'0 0.0
2017-Aug-23 19:20N 25°48' W 080°09'0 0.0
2017-Aug-23 18:56N 25°48' W 080°09'0 0.0
2017-Aug-23 18:29N 25°48' W 080°09'0 0.0
2017-Aug-23 17:59N 25°48' W 080°09'0 0.0
2017-Aug-23 17:29N 25°48' W 080°09'0 0.0
2017-Aug-23 16:59N 25°48' W 080°09'0 0.0
2017-Aug-23 16:29N 25°48' W 080°09'0 0.0
2017-Aug-23 15:59N 25°48' W 080°09'0 0.0
2017-Aug-23 15:29N 25°48' W 080°09'0 0.0
2017-Aug-23 14:59N 25°48' W 080°09'0 0.0
2017-Aug-23 14:29N 25°48' W 080°09'0 0.0
2017-Aug-23 13:29N 25°48' W 080°09'0 0.0
2017-Aug-23 12:59N 25°48' W 080°09'0 0.0
2017-Aug-23 12:29N 25°48' W 080°09'0 0.0
2017-Aug-23 11:56N 25°48' W 080°09'0 0.0
2017-Aug-23 11:29N 25°48' W 080°09'0 0.0
2017-Aug-23 10:53N 25°48' W 080°09'0 0.0
2017-Aug-23 10:29N 25°48' W 080°09'0 0.0
2017-Aug-23 09:53N 25°48' W 080°09'0 0.0
2017-Aug-23 09:26N 25°48' W 080°09'0 0.0
2017-Aug-23 08:59N 25°48' W 080°09'0 0.0
2017-Aug-23 08:29N 25°48' W 080°09'0 0.0
2017-Aug-23 07:47N 25°48' W 080°09'0 0.0
2017-Aug-23 07:29N 25°48' W 080°09'0 0.0
2017-Aug-23 06:59N 25°48' W 080°09'0 0.0
2017-Aug-23 06:23N 25°48' W 080°09'0 0.0
2017-Aug-23 05:59N 25°48' W 080°09'0 0.0
2017-Aug-23 05:23N 25°48' W 080°09'0 0.0
2017-Aug-23 04:59N 25°48' W 080°09'0 0.0
2017-Aug-23 04:29N 25°48' W 080°09'0 0.0
2017-Aug-23 03:59N 25°48' W 080°09'0 0.0
2017-Aug-23 03:29N 25°48' W 080°09'0 0.0
2017-Aug-23 02:59N 25°48' W 080°09'0 0.0
2017-Aug-23 02:29N 25°48' W 080°09'0 0.0
2017-Aug-23 01:59N 25°48' W 080°09'0 0.0
2017-Aug-23 01:29N 25°48' W 080°09'0 0.0
2017-Aug-23 00:59N 25°48' W 080°09'0 0.0
2017-Aug-23 00:29N 25°48' W 080°09'0 0.0
2017-Aug-22 23:59N 25°48' W 080°09'0 0.0
2017-Aug-22 23:29N 25°48' W 080°09'0 0.0
2017-Aug-22 22:56N 25°48' W 080°09'0 0.0
2017-Aug-22 22:26N 25°48' W 080°09'0 0.0
2017-Aug-22 21:56N 25°48' W 080°09'0 0.0
2017-Aug-22 21:29N 25°48' W 080°09'0 0.0
2017-Aug-22 20:59N 25°48' W 080°09'0 0.0
2017-Aug-22 20:26N 25°48' W 080°09'0 0.0
2017-Aug-22 19:59N 25°48' W 080°09'0 0.0
2017-Aug-22 19:29N 25°48' W 080°09'0 0.0
2017-Aug-22 18:59N 25°48' W 080°09'0 0.0
2017-Aug-22 18:23N 25°48' W 080°09'0 0.0
2017-Aug-22 17:56N 25°48' W 080°09'0 0.0
2017-Aug-22 17:29N 25°48' W 080°09'0 0.0
2017-Aug-22 16:59N 25°48' W 080°09'0 0.0
2017-Aug-22 16:29N 25°48' W 080°09'0 0.0
2017-Aug-22 15:59N 25°48' W 080°09'0 0.0
2017-Aug-22 15:29N 25°48' W 080°09'0 0.0
2017-Aug-22 14:53N 25°48' W 080°09'0 0.0
2017-Aug-22 14:29N 25°48' W 080°09'0 0.0
2017-Aug-22 13:59N 25°48' W 080°09'0 0.0
2017-Aug-22 13:29N 25°48' W 080°09'0 0.0
2017-Aug-22 12:56N 25°48' W 080°09'0 0.0
2017-Aug-22 12:26N 25°48' W 080°09'0 0.0
2017-Aug-22 11:53N 25°48' W 080°09'0 0.0
2017-Aug-22 11:29N 25°48' W 080°09'0 0.0
2017-Aug-22 10:59N 25°48' W 080°09'0 0.0
2017-Aug-22 10:29N 25°48' W 080°09'0 0.0
2017-Aug-22 09:53N 25°48' W 080°09'0 0.0
2017-Aug-22 09:29N 25°48' W 080°09'0 0.0
2017-Aug-22 08:59N 25°48' W 080°09'0 0.0
2017-Aug-22 08:29N 25°48' W 080°09'0 0.0
2017-Aug-22 07:56N 25°48' W 080°09'0 0.0
2017-Aug-22 07:29N 25°48' W 080°09'0 0.0
2017-Aug-22 06:59N 25°48' W 080°09'0 0.0
2017-Aug-22 06:29N 25°48' W 080°09'0 0.0
2017-Aug-22 05:59N 25°48' W 080°09'0 0.0
2017-Aug-22 05:29N 25°48' W 080°09'0 0.0
2017-Aug-22 04:59N 25°48' W 080°09'0 0.0
2017-Aug-22 04:29N 25°48' W 080°09'0 0.0
2017-Aug-22 03:59N 25°48' W 080°09'0 0.0
2017-Aug-22 03:29N 25°48' W 080°09'0 0.0
2017-Aug-22 02:59N 25°48' W 080°09'0 0.0
2017-Aug-22 02:26N 25°48' W 080°09'0 0.0
2017-Aug-22 01:59N 25°48' W 080°09'0 0.0
2017-Aug-22 01:29N 25°48' W 080°09'0 0.0
2017-Aug-22 00:59N 25°48' W 080°09'0 0.0
2017-Aug-22 00:29N 25°48' W 080°09'0 0.0
2017-Aug-21 23:59N 25°48' W 080°09'0 0.0
2017-Aug-21 23:29N 25°48' W 080°09'0 0.0
2017-Aug-21 22:56N 25°48' W 080°09'0 0.0
2017-Aug-21 22:26N 25°48' W 080°09'0 0.0
2017-Aug-21 21:47N 25°48' W 080°09'0 0.0
2017-Aug-21 21:26N 25°48' W 080°09'0 0.0
2017-Aug-21 20:56N 25°48' W 080°09'0 0.0
2017-Aug-21 20:26N 25°48' W 080°09'0 0.0
2017-Aug-21 19:59N 25°48' W 080°09'0 0.0
2017-Aug-21 19:29N 25°48' W 080°09'0 0.0
2017-Aug-21 18:59N 25°48' W 080°09'0 0.0
2017-Aug-21 18:29N 25°48' W 080°09'0 0.0
2017-Aug-21 17:59N 25°48' W 080°09'0 0.0
2017-Aug-21 17:20N 25°48' W 080°09'0 0.0
2017-Aug-21 16:59N 25°48' W 080°09'0 0.0
2017-Aug-21 16:29N 25°48' W 080°09'0 0.0
2017-Aug-21 15:59N 25°48' W 080°09'0 0.0
2017-Aug-21 15:29N 25°48' W 080°09'0 0.0
2017-Aug-21 14:56N 25°48' W 080°09'0 0.0
2017-Aug-21 14:29N 25°48' W 080°09'0 0.0
2017-Aug-21 13:56N 25°48' W 080°09'0 0.0
2017-Aug-21 13:26N 25°48' W 080°09'0 0.0
2017-Aug-21 12:59N 25°48' W 080°09'0 0.0
2017-Aug-21 12:23N 25°48' W 080°09'0 0.0
2017-Aug-21 11:59N 25°48' W 080°09'0 0.0
2017-Aug-21 11:29N 25°48' W 080°09'0 0.0
2017-Aug-21 10:59N 25°48' W 080°09'0 0.0
2017-Aug-21 10:26N 25°48' W 080°09'0 0.0
2017-Aug-21 09:56N 25°48' W 080°09'0 0.0
2017-Aug-21 09:29N 25°48' W 080°09'0 0.0
2017-Aug-21 08:59N 25°48' W 080°09'0 0.0
2017-Aug-21 08:29N 25°48' W 080°09'0 0.0
2017-Aug-21 07:50N 25°48' W 080°09'0 0.0
2017-Aug-21 07:23N 25°48' W 080°09'0 0.0
2017-Aug-21 06:59N 25°48' W 080°09'0 0.0
2017-Aug-21 06:29N 25°48' W 080°09'0 0.0
2017-Aug-21 05:59N 25°48' W 080°09'0 0.0
2017-Aug-21 05:29N 25°48' W 080°09'0 0.0
2017-Aug-21 04:56N 25°48' W 080°09'0 0.0
2017-Aug-21 04:26N 25°48' W 080°09'0 0.0
2017-Aug-21 03:59N 25°48' W 080°09'0 0.0
2017-Aug-21 03:26N 25°48' W 080°09'0 0.0
2017-Aug-21 02:59N 25°48' W 080°09'0 0.0
2017-Aug-21 02:29N 25°48' W 080°09'0 0.0
2017-Aug-21 01:59N 25°48' W 080°09'0 0.0
2017-Aug-21 01:29N 25°48' W 080°09'0 0.0
2017-Aug-21 00:59N 25°48' W 080°09'0 0.0
2017-Aug-21 00:23N 25°48' W 080°09'0 0.0
2017-Aug-20 23:53N 25°48' W 080°09'0 0.0
2017-Aug-20 23:29N 25°48' W 080°09'  
Track history (hours):
 
Tides and Currents Weather Stations Pressure Air Temp Water Temp Dewpoint Dewpoint Depression Visibility Wind Speed Wind Dir Waves Ship Positions

L'a Kai

Last reported at 2017-Aug-30 22:58 UTC. Time now 2017-Sep-25 11:48 UTC.
Position N 26°15' W 079°59'.
Warning: this ship's position is 25 days out of date.

Length 11 m.

MMSI: 339344000.

Date/timePositionNaut miles runAvg speedWind from/ knotsBaromVisibWave heightAir tempDewpointWater temp
2017-Aug-30 22:58N 26°15' W 079°59'811.6
2017-Aug-30 22:16N 26°10' W 079°52'514.8
2017-Aug-30 21:58N 26°06' W 079°49'1 2.4
2017-Aug-30 21:27N 26°05' W 079°49'4 5.9
2017-Aug-30 20:46N 26°01' W 079°48'4 2.7
2017-Aug-30 19:12N 25°57' W 079°49'1 3.6
2017-Aug-30 18:48N 25°55' W 079°49'2 5.6
2017-Aug-30 18:28N 25°54' W 079°49'0 1.0
2017-Aug-30 18:00N 25°53' W 079°49'5 7.8
2017-Aug-30 17:21N 25°49' W 079°53'1233.7
2017-Aug-30 16:59N 25°45' W 080°06'3 5.3
2017-Aug-30 16:30N 25°46' W 080°08'1 2.7
2017-Aug-30 15:59N 25°48' W 080°09'0 0.0
2017-Aug-30 15:26N 25°48' W 080°09'0 0.0
2017-Aug-30 14:59N 25°48' W 080°09'0 0.0
2017-Aug-30 14:29N 25°48' W 080°09'0 0.0
2017-Aug-30 13:59N 25°48' W 080°09'0 0.0
2017-Aug-30 13:29N 25°48' W 080°09'0 0.0
2017-Aug-30 12:59N 25°48' W 080°09'0 0.0
2017-Aug-30 12:29N 25°48' W 080°09'0 0.0
2017-Aug-30 11:59N 25°48' W 080°09'0 0.0
2017-Aug-30 11:26N 25°48' W 080°09'0 0.0
2017-Aug-30 10:59N 25°48' W 080°09'0 0.0
2017-Aug-30 10:23N 25°48' W 080°09'0 0.0
2017-Aug-30 09:56N 25°48' W 080°09'0 0.0
2017-Aug-30 09:26N 25°48' W 080°09'0 0.0
2017-Aug-30 08:59N 25°48' W 080°09'0 0.0
2017-Aug-30 08:29N 25°48' W 080°09'0 0.0
2017-Aug-30 07:50N 25°48' W 080°09'0 0.0
2017-Aug-30 07:26N 25°48' W 080°09'0 0.0
2017-Aug-30 06:59N 25°48' W 080°09'0 0.0
2017-Aug-30 06:29N 25°48' W 080°09'0 0.0
2017-Aug-30 05:59N 25°48' W 080°09'0 0.0
2017-Aug-30 05:23N 25°48' W 080°09'0 0.0
2017-Aug-30 04:59N 25°48' W 080°09'0 0.0
2017-Aug-30 04:29N 25°48' W 080°09'0 0.0
2017-Aug-30 03:56N 25°48' W 080°09'0 0.0
2017-Aug-30 03:29N 25°48' W 080°09'0 0.0
2017-Aug-30 02:53N 25°48' W 080°09'0 0.0
2017-Aug-30 02:26N 25°48' W 080°09'0 0.0
2017-Aug-30 01:59N 25°48' W 080°09'0 0.0
2017-Aug-30 01:29N 25°48' W 080°09'0 0.0
2017-Aug-30 00:53N 25°48' W 080°09'0 0.0
2017-Aug-30 00:29N 25°48' W 080°09'0 0.0
2017-Aug-29 23:53N 25°48' W 080°09'0 0.0
2017-Aug-29 23:20N 25°48' W 080°09'0 0.0
2017-Aug-29 22:56N 25°48' W 080°09'0 0.0
2017-Aug-29 22:26N 25°48' W 080°09'0 0.0
2017-Aug-29 21:59N 25°48' W 080°09'0 0.0
2017-Aug-29 21:23N 25°48' W 080°09'0 0.0
2017-Aug-29 20:59N 25°48' W 080°09'0 0.0
2017-Aug-29 20:29N 25°48' W 080°09'0 0.0
2017-Aug-29 19:59N 25°48' W 080°09'0 0.0
2017-Aug-29 19:29N 25°48' W 080°09'0 0.0
2017-Aug-29 18:59N 25°48' W 080°09'0 0.0
2017-Aug-29 18:29N 25°48' W 080°09'0 0.0
2017-Aug-29 17:59N 25°48' W 080°09'0 0.0
2017-Aug-29 17:29N 25°48' W 080°09'0 0.0
2017-Aug-29 16:59N 25°48' W 080°09'0 0.0
2017-Aug-29 16:29N 25°48' W 080°09'0 0.0
2017-Aug-29 15:59N 25°48' W 080°09'0 0.0
2017-Aug-29 15:29N 25°48' W 080°09'0 0.0
2017-Aug-29 14:59N 25°48' W 080°09'0 0.0
2017-Aug-29 14:29N 25°48' W 080°09'0 0.0
2017-Aug-29 13:56N 25°48' W 080°09'0 0.0
2017-Aug-29 13:29N 25°48' W 080°09'0 0.0
2017-Aug-29 12:59N 25°48' W 080°09'0 0.0
2017-Aug-29 12:29N 25°48' W 080°09'0 0.0
2017-Aug-29 11:59N 25°48' W 080°09'0 0.0
2017-Aug-29 11:29N 25°48' W 080°09'0 0.0
2017-Aug-29 10:59N 25°48' W 080°09'0 0.0
2017-Aug-29 10:29N 25°48' W 080°09'0 0.0
2017-Aug-29 09:59N 25°48' W 080°09'0 0.0
2017-Aug-29 09:29N 25°48' W 080°09'0 0.0
2017-Aug-29 08:59N 25°48' W 080°09'0 0.0
2017-Aug-29 08:26N 25°48' W 080°09'0 0.0
2017-Aug-29 07:59N 25°48' W 080°09'0 0.0
2017-Aug-29 07:29N 25°48' W 080°09'0 0.0
2017-Aug-29 06:56N 25°48' W 080°09'0 0.0
2017-Aug-29 06:26N 25°48' W 080°09'0 0.0
2017-Aug-29 05:59N 25°48' W 080°09'0 0.0
2017-Aug-29 05:29N 25°48' W 080°09'0 0.0
2017-Aug-29 04:53N 25°48' W 080°09'0 0.0
2017-Aug-29 04:29N 25°48' W 080°09'0 0.0
2017-Aug-29 03:56N 25°48' W 080°09'0 0.0
2017-Aug-29 03:29N 25°48' W 080°09'0 0.0
2017-Aug-29 02:59N 25°48' W 080°09'0 0.0
2017-Aug-29 02:17N 25°48' W 080°09'0 0.0
2017-Aug-29 01:59N 25°48' W 080°09'0 0.0
2017-Aug-29 01:29N 25°48' W 080°09'0 0.0
2017-Aug-29 00:59N 25°48' W 080°09'0 0.0
2017-Aug-29 00:29N 25°48' W 080°09'0 0.0
2017-Aug-28 23:50N 25°48' W 080°09'0 0.0
2017-Aug-28 23:26N 25°48' W 080°09'0 0.0
2017-Aug-28 22:59N 25°48' W 080°09'0 0.0
2017-Aug-28 22:29N 25°48' W 080°09'0 0.0
2017-Aug-28 21:56N 25°48' W 080°09'0 0.0
2017-Aug-28 21:29N 25°48' W 080°09'0 0.0
2017-Aug-28 20:59N 25°48' W 080°09'0 0.0
2017-Aug-28 20:29N 25°48' W 080°09'0 0.0
2017-Aug-28 19:59N 25°48' W 080°09'0 0.0
2017-Aug-28 19:29N 25°48' W 080°09'0 0.0
2017-Aug-28 18:59N 25°48' W 080°09'0 0.0
2017-Aug-28 18:26N 25°48' W 080°09'0 0.0
2017-Aug-28 17:59N 25°48' W 080°09'0 0.0
2017-Aug-28 17:26N 25°48' W 080°09'0 0.0
2017-Aug-28 16:59N 25°48' W 080°09'0 0.0
2017-Aug-28 16:29N 25°48' W 080°09'0 0.0
2017-Aug-28 15:53N 25°48' W 080°09'0 0.0
2017-Aug-28 15:29N 25°48' W 080°09'0 0.0
2017-Aug-28 14:59N 25°48' W 080°09'0 0.0
2017-Aug-28 14:23N 25°48' W 080°09'0 0.0
2017-Aug-28 13:59N 25°48' W 080°09'0 0.0
2017-Aug-28 13:29N 25°48' W 080°09'0 0.0
2017-Aug-28 12:59N 25°48' W 080°09'0 0.0
2017-Aug-28 12:29N 25°48' W 080°09'0 0.0
2017-Aug-28 11:53N 25°48' W 080°09'0 0.0
2017-Aug-28 11:26N 25°48' W 080°09'0 0.0
2017-Aug-28 10:59N 25°48' W 080°09'0 0.0
2017-Aug-28 10:29N 25°48' W 080°09'0 0.0
2017-Aug-28 09:59N 25°48' W 080°09'0 0.0
2017-Aug-28 09:29N 25°48' W 080°09'0 0.0
2017-Aug-28 08:59N 25°48' W 080°09'0 0.0
2017-Aug-28 08:29N 25°48' W 080°09'0 0.0
2017-Aug-28 07:59N 25°48' W 080°09'0 0.0
2017-Aug-28 07:26N 25°48' W 080°09'0 0.0
2017-Aug-28 06:56N 25°48' W 080°09'0 0.0
2017-Aug-28 06:29N 25°48' W 080°09'0 0.0
2017-Aug-28 05:59N 25°48' W 080°09'0 0.0
2017-Aug-28 05:29N 25°48' W 080°09'0 0.0
2017-Aug-28 04:59N 25°48' W 080°09'0 0.0
2017-Aug-28 04:23N 25°48' W 080°09'0 0.0
2017-Aug-28 03:59N 25°48' W 080°09'0 0.0
2017-Aug-28 03:29N 25°48' W 080°09'0 0.0
2017-Aug-28 02:56N 25°48' W 080°09'0 0.0
2017-Aug-28 02:29N 25°48' W 080°09'0 0.0
2017-Aug-28 01:53N 25°48' W 080°09'0 0.0
2017-Aug-28 01:29N 25°48' W 080°09'0 0.0
2017-Aug-28 00:59N 25°48' W 080°09'0 0.0
2017-Aug-28 00:29N 25°48' W 080°09'0 0.0
2017-Aug-27 23:59N 25°48' W 080°09'0 0.0
2017-Aug-27 23:29N 25°48' W 080°09'0 0.0
2017-Aug-27 22:59N 25°48' W 080°09'0 0.0
2017-Aug-27 22:29N 25°48' W 080°09'0 0.0
2017-Aug-27 21:56N 25°48' W 080°09'0 0.0
2017-Aug-27 21:29N 25°48' W 080°09'0 0.0
2017-Aug-27 20:59N 25°48' W 080°09'0 0.0
2017-Aug-27 20:29N 25°48' W 080°09'0 0.0
2017-Aug-27 19:59N 25°48' W 080°09'0 0.0
2017-Aug-27 19:26N 25°48' W 080°09'0 0.0
2017-Aug-27 18:59N 25°48' W 080°09'0 0.0
2017-Aug-27 18:26N 25°48' W 080°09'0 0.0
2017-Aug-27 17:59N 25°48' W 080°09'0 0.0
2017-Aug-27 17:29N 25°48' W 080°09'0 0.0
2017-Aug-27 16:59N 25°48' W 080°09'0 0.0
2017-Aug-27 16:23N 25°48' W 080°09'0 0.0
2017-Aug-27 15:53N 25°48' W 080°09'0 0.0
2017-Aug-27 15:26N 25°48' W 080°09'0 0.0
2017-Aug-27 14:59N 25°48' W 080°09'0 0.0
2017-Aug-27 14:29N 25°48' W 080°09'0 0.0
2017-Aug-27 13:56N 25°48' W 080°09'0 0.0
2017-Aug-27 13:29N 25°48' W 080°09'0 0.0
2017-Aug-27 12:59N 25°48' W 080°09'0 0.0
2017-Aug-27 12:29N 25°48' W 080°09'0 0.0
2017-Aug-27 11:44N 25°48' W 080°09'0 0.0
2017-Aug-27 11:26N 25°48' W 080°09'0 0.0
2017-Aug-27 10:59N 25°48' W 080°09'0 0.0
2017-Aug-27 10:29N 25°48' W 080°09'0 0.0
2017-Aug-27 09:59N 25°48' W 080°09'0 0.0
2017-Aug-27 09:29N 25°48' W 080°09'0 0.0
2017-Aug-27 08:59N 25°48' W 080°09'0 0.0
2017-Aug-27 08:29N 25°48' W 080°09'0 0.0
2017-Aug-27 07:56N 25°48' W 080°09'0 0.0
2017-Aug-27 07:29N 25°48' W 080°09'0 0.0
2017-Aug-27 06:59N 25°48' W 080°09'0 0.0
2017-Aug-27 06:29N 25°48' W 080°09'0 0.0
2017-Aug-27 05:59N 25°48' W 080°09'0 0.0
2017-Aug-27 05:29N 25°48' W 080°09'0 0.0
2017-Aug-27 04:59N 25°48' W 080°09'0 0.0
2017-Aug-27 04:23N 25°48' W 080°09'0 0.0
2017-Aug-27 03:56N 25°48' W 080°09'0 0.0
2017-Aug-27 03:29N 25°48' W 080°09'0 0.0
2017-Aug-27 02:59N 25°48' W 080°09'0 0.0
2017-Aug-27 02:23N 25°48' W 080°09'0 0.0
2017-Aug-27 01:56N 25°48' W 080°09'0 0.0
2017-Aug-27 01:29N 25°48' W 080°09'0 0.0
2017-Aug-27 00:59N 25°48' W 080°09'0 0.0
2017-Aug-27 00:23N 25°48' W 080°09'0 0.0
2017-Aug-26 23:59N 25°48' W 080°09'0 0.0
2017-Aug-26 23:20N 25°48' W 080°09'0 0.0
2017-Aug-26 22:56N 25°48' W 080°09'0 0.0
2017-Aug-26 22:29N 25°48' W 080°09'0 0.0
2017-Aug-26 21:59N 25°48' W 080°09'0 0.0
2017-Aug-26 21:29N 25°48' W 080°09'0 0.0
2017-Aug-26 20:59N 25°48' W 080°09'0 0.0
2017-Aug-26 20:29N 25°48' W 080°09'0 0.0
2017-Aug-26 19:59N 25°48' W 080°09'0 0.0
2017-Aug-26 19:29N 25°48' W 080°09'0 0.0
2017-Aug-26 18:59N 25°48' W 080°09'0 0.0
2017-Aug-26 18:23N 25°48' W 080°09'0 0.0
2017-Aug-26 17:59N 25°48' W 080°09'0 0.0
2017-Aug-26 17:26N 25°48' W 080°09'0 0.0
2017-Aug-26 16:56N 25°48' W 080°09'0 0.0
2017-Aug-26 16:26N 25°48' W 080°09'0 0.0
2017-Aug-26 15:59N 25°48' W 080°09'0 0.0
2017-Aug-26 15:29N 25°48' W 080°09'0 0.0
2017-Aug-26 14:59N 25°48' W 080°09'0 0.0
2017-Aug-26 13:59N 25°48' W 080°09'0 0.0
2017-Aug-26 13:26N 25°48' W 080°09'0 0.0
2017-Aug-26 12:59N 25°48' W 080°09'0 0.0
2017-Aug-26 12:29N 25°48' W 080°09'0 0.0
2017-Aug-26 11:56N 25°48' W 080°09'0 0.0
2017-Aug-26 11:26N 25°48' W 080°09'0 0.0
2017-Aug-26 10:50N 25°48' W 080°09'0 0.0
2017-Aug-26 10:26N 25°48' W 080°09'0 0.0
2017-Aug-26 09:59N 25°48' W 080°09'0 0.0
2017-Aug-26 09:23N 25°48' W 080°09'0 0.0
2017-Aug-26 08:59N 25°48' W 080°09'0 0.0
2017-Aug-26 08:29N 25°48' W 080°09'0 0.0
2017-Aug-26 07:59N 25°48' W 080°09'0 0.0
2017-Aug-26 07:23N 25°48' W 080°09'0 0.0
2017-Aug-26 06:56N 25°48' W 080°09'0 0.0
2017-Aug-26 06:29N 25°48' W 080°09'0 0.0
2017-Aug-26 05:59N 25°48' W 080°09'0 0.0
2017-Aug-26 05:29N 25°48' W 080°09'0 0.0
2017-Aug-26 04:59N 25°48' W 080°09'0 0.0
2017-Aug-26 04:26N 25°48' W 080°09'0 0.0
2017-Aug-26 03:59N 25°48' W 080°09'0 0.0
2017-Aug-26 03:26N 25°48' W 080°09'0 0.0
2017-Aug-26 02:59N 25°48' W 080°09'0 0.0
2017-Aug-26 02:23N 25°48' W 080°09'0 0.0
2017-Aug-26 01:59N 25°48' W 080°09'0 0.0
2017-Aug-26 01:29N 25°48' W 080°09'0 0.0
2017-Aug-26 00:50N 25°48' W 080°09'0 0.0
2017-Aug-26 00:29N 25°48' W 080°09'0 0.0
2017-Aug-25 23:59N 25°48' W 080°09'0 0.0
2017-Aug-25 23:26N 25°48' W 080°09'0 0.0
2017-Aug-25 22:56N 25°48' W 080°09'0 0.0
2017-Aug-25 22:29N 25°48' W 080°09'0 0.0
2017-Aug-25 21:59N 25°48' W 080°09'0 0.0
2017-Aug-25 21:29N 25°48' W 080°09'0 0.0
2017-Aug-25 20:56N 25°48' W 080°09'0 0.0
2017-Aug-25 20:26N 25°48' W 080°09'0 0.0
2017-Aug-25 19:59N 25°48' W 080°09'0 0.0
2017-Aug-25 19:29N 25°48' W 080°09'0 0.0
2017-Aug-25 18:59N 25°48' W 080°09'0 0.0
2017-Aug-25 18:29N 25°48' W 080°09'0 0.0
2017-Aug-25 17:59N 25°48' W 080°09'0 0.0
2017-Aug-25 17:29N 25°48' W 080°09'0 0.0
2017-Aug-25 16:59N 25°48' W 080°09'0 0.0
2017-Aug-25 16:26N 25°48' W 080°09'0 0.0
2017-Aug-25 15:59N 25°48' W 080°09'0 0.0
2017-Aug-25 15:29N 25°48' W 080°09'0 0.0
2017-Aug-25 14:59N 25°48' W 080°09'0 0.0
2017-Aug-25 13:59N 25°48' W 080°09'0 0.0
2017-Aug-25 13:29N 25°48' W 080°09'0 0.0
2017-Aug-25 12:59N 25°48' W 080°09'0 0.0
2017-Aug-25 12:23N 25°48' W 080°09'0 0.0
2017-Aug-25 11:56N 25°48' W 080°09'0 0.0
2017-Aug-25 11:26N 25°48' W 080°09'0 0.0
2017-Aug-25 10:53N 25°48' W 080°09'0 0.0
2017-Aug-25 10:29N 25°48' W 080°09'0 0.0
2017-Aug-25 09:56N 25°48' W 080°09'0 0.0
2017-Aug-25 09:29N 25°48' W 080°09'0 0.0
2017-Aug-25 08:59N 25°48' W 080°09'0 0.0
2017-Aug-25 08:26N 25°48' W 080°09'0 0.0
2017-Aug-25 07:59N 25°48' W 080°09'0 0.0
2017-Aug-25 07:23N 25°48' W 080°09'0 0.0
2017-Aug-25 06:59N 25°48' W 080°09'0 0.0
2017-Aug-25 06:29N 25°48' W 080°09'0 0.0
2017-Aug-25 05:59N 25°48' W 080°09'0 0.0
2017-Aug-25 05:29N 25°48' W 080°09'0 0.0
2017-Aug-25 04:59N 25°48' W 080°09'0 0.0
2017-Aug-25 04:26N 25°48' W 080°09'0 0.0
2017-Aug-25 03:56N 25°48' W 080°09'0 0.0
2017-Aug-25 03:29N 25°48' W 080°09'0 0.0
2017-Aug-25 02:59N 25°48' W 080°09'0 0.0
2017-Aug-25 02:29N 25°48' W 080°09'0 0.0
2017-Aug-25 01:59N 25°48' W 080°09'0 0.0
2017-Aug-25 01:29N 25°48' W 080°09'0 0.0
2017-Aug-25 00:59N 25°48' W 080°09'0 0.0
2017-Aug-25 00:29N 25°48' W 080°09'0 0.0
2017-Aug-24 23:59N 25°48' W 080°09'0 0.0
2017-Aug-24 23:26N 25°48' W 080°09'0 0.0
2017-Aug-24 22:56N 25°48' W 080°09'0 0.0
2017-Aug-24 22:08N 25°48' W 080°09'0 0.0
2017-Aug-24 21:56N 25°48' W 080°09'0 0.0
2017-Aug-24 21:23N 25°48' W 080°09'0 0.0
2017-Aug-24 20:59N 25°48' W 080°09'0 0.0
2017-Aug-24 20:29N 25°48' W 080°09'0 0.0
2017-Aug-24 19:59N 25°48' W 080°09'0 0.0
2017-Aug-24 19:29N 25°48' W 080°09'0 0.0
2017-Aug-24 18:56N 25°48' W 080°09'0 0.0
2017-Aug-24 18:29N 25°48' W 080°09'0 0.0
2017-Aug-24 17:56N 25°48' W 080°09'0 0.0
2017-Aug-24 17:26N 25°48' W 080°09'0 0.0
2017-Aug-24 16:59N 25°48' W 080°09'0 0.0
2017-Aug-24 16:29N 25°48' W 080°09'0 0.0
2017-Aug-24 15:59N 25°48' W 080°09'0 0.0
2017-Aug-24 15:26N 25°48' W 080°09'0 0.0
2017-Aug-24 14:59N 25°48' W 080°09'0 0.0
2017-Aug-24 14:29N 25°48' W 080°09'0 0.0
2017-Aug-24 13:59N 25°48' W 080°09'0 0.0
2017-Aug-24 13:29N 25°48' W 080°09'0 0.0
2017-Aug-24 12:59N 25°48' W 080°09'0 0.0
2017-Aug-24 12:29N 25°48' W 080°09'0 0.0
2017-Aug-24 11:56N 25°48' W 080°09'0 0.0
2017-Aug-24 11:29N 25°48' W 080°09'0 0.0
2017-Aug-24 10:59N 25°48' W 080°09'0 0.0
2017-Aug-24 10:29N 25°48' W 080°09'0 0.0
2017-Aug-24 09:44N 25°48' W 080°09'0 0.0
2017-Aug-24 09:29N 25°48' W 080°09'0 0.0
2017-Aug-24 08:59N 25°48' W 080°09'0 0.0
2017-Aug-24 08:20N 25°48' W 080°09'0 0.0
2017-Aug-24 07:59N 25°48' W 080°09'0 0.0
2017-Aug-24 07:29N 25°48' W 080°09'0 0.0
2017-Aug-24 06:59N 25°48' W 080°09'0 0.0
2017-Aug-24 06:29N 25°48' W 080°09'0 0.0
2017-Aug-24 05:56N 25°48' W 080°09'0 0.0
2017-Aug-24 05:29N 25°48' W 080°09'0 0.0
2017-Aug-24 04:59N 25°48' W 080°09'0 0.0
2017-Aug-24 04:26N 25°48' W 080°09'0 0.0
2017-Aug-24 03:59N 25°48' W 080°09'0 0.0
2017-Aug-24 03:29N 25°48' W 080°09'0 0.0
2017-Aug-24 02:59N 25°48' W 080°09'0 0.0
2017-Aug-24 02:29N 25°48' W 080°09'0 0.0
2017-Aug-24 01:53N 25°48' W 080°09'0 0.0
2017-Aug-24 01:29N 25°48' W 080°09'0 0.0
2017-Aug-24 00:59N 25°48' W 080°09'0 0.0
2017-Aug-24 00:29N 25°48' W 080°09'0 0.0
2017-Aug-23 23:56N 25°48' W 080°09'0 0.0
2017-Aug-23 23:29N 25°48' W 080°09'0 0.0
2017-Aug-23 22:59N 25°48' W 080°09'0 0.0
2017-Aug-23 22:29N 25°48' W 080°09'0 0.0
2017-Aug-23 21:59N 25°48' W 080°09'0 0.0
2017-Aug-23 21:20N 25°48' W 080°09'0 0.0
2017-Aug-23 20:56N 25°48' W 080°09'0 0.0
2017-Aug-23 20:26N 25°48' W 080°09'0 0.0
2017-Aug-23 19:53N 25°48' W 080°09'0 0.0
2017-Aug-23 19:20N 25°48' W 080°09'0 0.0
2017-Aug-23 18:56N 25°48' W 080°09'0 0.0
2017-Aug-23 18:29N 25°48' W 080°09'0 0.0
2017-Aug-23 17:59N 25°48' W 080°09'0 0.0
2017-Aug-23 17:29N 25°48' W 080°09'0 0.0
2017-Aug-23 16:59N 25°48' W 080°09'0 0.0
2017-Aug-23 16:29N 25°48' W 080°09'0 0.0
2017-Aug-23 15:59N 25°48' W 080°09'0 0.0
2017-Aug-23 15:29N 25°48' W 080°09'0 0.0
2017-Aug-23 14:59N 25°48' W 080°09'0 0.0
2017-Aug-23 14:29N 25°48' W 080°09'0 0.0
2017-Aug-23 13:29N 25°48' W 080°09'0 0.0
2017-Aug-23 12:59N 25°48' W 080°09'0 0.0
2017-Aug-23 12:29N 25°48' W 080°09'0 0.0
2017-Aug-23 11:56N 25°48' W 080°09'0 0.0
2017-Aug-23 11:29N 25°48' W 080°09'0 0.0
2017-Aug-23 10:53N 25°48' W 080°09'0 0.0
2017-Aug-23 10:29N 25°48' W 080°09'0 0.0
2017-Aug-23 09:53N 25°48' W 080°09'0 0.0
2017-Aug-23 09:26N 25°48' W 080°09'0 0.0
2017-Aug-23 08:59N 25°48' W 080°09'0 0.0
2017-Aug-23 08:29N 25°48' W 080°09'0 0.0
2017-Aug-23 07:47N 25°48' W 080°09'0 0.0
2017-Aug-23 07:29N 25°48' W 080°09'0 0.0
2017-Aug-23 06:59N 25°48' W 080°09'0 0.0
2017-Aug-23 06:23N 25°48' W 080°09'0 0.0
2017-Aug-23 05:59N 25°48' W 080°09'0 0.0
2017-Aug-23 05:23N 25°48' W 080°09'0 0.0
2017-Aug-23 04:59N 25°48' W 080°09'0 0.0
2017-Aug-23 04:29N 25°48' W 080°09'0 0.0
2017-Aug-23 03:59N 25°48' W 080°09'0 0.0
2017-Aug-23 03:29N 25°48' W 080°09'0 0.0
2017-Aug-23 02:59N 25°48' W 080°09'0 0.0
2017-Aug-23 02:29N 25°48' W 080°09'0 0.0
2017-Aug-23 01:59N 25°48' W 080°09'0 0.0
2017-Aug-23 01:29N 25°48' W 080°09'0 0.0
2017-Aug-23 00:59N 25°48' W 080°09'0 0.0
2017-Aug-23 00:29N 25°48' W 080°09'0 0.0
2017-Aug-22 23:59N 25°48' W 080°09'0 0.0
2017-Aug-22 23:29N 25°48' W 080°09'0 0.0
2017-Aug-22 22:56N 25°48' W 080°09'0 0.0
2017-Aug-22 22:26N 25°48' W 080°09'0 0.0
2017-Aug-22 21:56N 25°48' W 080°09'0 0.0
2017-Aug-22 21:29N 25°48' W 080°09'0 0.0
2017-Aug-22 20:59N 25°48' W 080°09'0 0.0
2017-Aug-22 20:26N 25°48' W 080°09'0 0.0
2017-Aug-22 19:59N 25°48' W 080°09'0 0.0
2017-Aug-22 19:29N 25°48' W 080°09'0 0.0
2017-Aug-22 18:59N 25°48' W 080°09'0 0.0
2017-Aug-22 18:23N 25°48' W 080°09'0 0.0
2017-Aug-22 17:56N 25°48' W 080°09'0 0.0
2017-Aug-22 17:29N 25°48' W 080°09'0 0.0
2017-Aug-22 16:59N 25°48' W 080°09'0 0.0
2017-Aug-22 16:29N 25°48' W 080°09'0 0.0
2017-Aug-22 15:59N 25°48' W 080°09'0 0.0
2017-Aug-22 15:29N 25°48' W 080°09'0 0.0
2017-Aug-22 14:53N 25°48' W 080°09'0 0.0
2017-Aug-22 14:29N 25°48' W 080°09'0 0.0
2017-Aug-22 13:59N 25°48' W 080°09'0 0.0
2017-Aug-22 13:29N 25°48' W 080°09'0 0.0
2017-Aug-22 12:56N 25°48' W 080°09'0 0.0
2017-Aug-22 12:26N 25°48' W 080°09'0 0.0
2017-Aug-22 11:53N 25°48' W 080°09'0 0.0
2017-Aug-22 11:29N 25°48' W 080°09'0 0.0
2017-Aug-22 10:59N 25°48' W 080°09'0 0.0
2017-Aug-22 10:29N 25°48' W 080°09'0 0.0
2017-Aug-22 09:53N 25°48' W 080°09'0 0.0
2017-Aug-22 09:29N 25°48' W 080°09'0 0.0
2017-Aug-22 08:59N 25°48' W 080°09'0 0.0
2017-Aug-22 08:29N 25°48' W 080°09'0 0.0
2017-Aug-22 07:56N 25°48' W 080°09'0 0.0
2017-Aug-22 07:29N 25°48' W 080°09'0 0.0
2017-Aug-22 06:59N 25°48' W 080°09'0 0.0
2017-Aug-22 06:29N 25°48' W 080°09'0 0.0
2017-Aug-22 05:59N 25°48' W 080°09'0 0.0
2017-Aug-22 05:29N 25°48' W 080°09'0 0.0
2017-Aug-22 04:59N 25°48' W 080°09'0 0.0
2017-Aug-22 04:29N 25°48' W 080°09'0 0.0
2017-Aug-22 03:59N 25°48' W 080°09'0 0.0
2017-Aug-22 03:29N 25°48' W 080°09'0 0.0
2017-Aug-22 02:59N 25°48' W 080°09'0 0.0
2017-Aug-22 02:26N 25°48' W 080°09'0 0.0
2017-Aug-22 01:59N 25°48' W 080°09'0 0.0
2017-Aug-22 01:29N 25°48' W 080°09'0 0.0
2017-Aug-22 00:59N 25°48' W 080°09'0 0.0
2017-Aug-22 00:29N 25°48' W 080°09'0 0.0
2017-Aug-21 23:59N 25°48' W 080°09'0 0.0
2017-Aug-21 23:29N 25°48' W 080°09'0 0.0
2017-Aug-21 22:56N 25°48' W 080°09'0 0.0
2017-Aug-21 22:26N 25°48' W 080°09'0 0.0
2017-Aug-21 21:47N 25°48' W 080°09'0 0.0
2017-Aug-21 21:26N 25°48' W 080°09'0 0.0
2017-Aug-21 20:56N 25°48' W 080°09'0 0.0
2017-Aug-21 20:26N 25°48' W 080°09'0 0.0
2017-Aug-21 19:59N 25°48' W 080°09'0 0.0
2017-Aug-21 19:29N 25°48' W 080°09'0 0.0
2017-Aug-21 18:59N 25°48' W 080°09'0 0.0
2017-Aug-21 18:29N 25°48' W 080°09'0 0.0
2017-Aug-21 17:59N 25°48' W 080°09'0 0.0
2017-Aug-21 17:20N 25°48' W 080°09'0 0.0
2017-Aug-21 16:59N 25°48' W 080°09'0 0.0
2017-Aug-21 16:29N 25°48' W 080°09'0 0.0
2017-Aug-21 15:59N 25°48' W 080°09'0 0.0
2017-Aug-21 15:29N 25°48' W 080°09'0 0.0
2017-Aug-21 14:56N 25°48' W 080°09'0 0.0
2017-Aug-21 14:29N 25°48' W 080°09'0 0.0
2017-Aug-21 13:56N 25°48' W 080°09'0 0.0
2017-Aug-21 13:26N 25°48' W 080°09'0 0.0
2017-Aug-21 12:59N 25°48' W 080°09'0 0.0
2017-Aug-21 12:23N 25°48' W 080°09'0 0.0
2017-Aug-21 11:59N 25°48' W 080°09'0 0.0
2017-Aug-21 11:29N 25°48' W 080°09'0 0.0
2017-Aug-21 10:59N 25°48' W 080°09'0 0.0
2017-Aug-21 10:26N 25°48' W 080°09'0 0.0
2017-Aug-21 09:56N 25°48' W 080°09'0 0.0
2017-Aug-21 09:29N 25°48' W 080°09'0 0.0
2017-Aug-21 08:59N 25°48' W 080°09'0 0.0
2017-Aug-21 08:29N 25°48' W 080°09'0 0.0
2017-Aug-21 07:50N 25°48' W 080°09'0 0.0
2017-Aug-21 07:23N 25°48' W 080°09'0 0.0
2017-Aug-21 06:59N 25°48' W 080°09'0 0.0
2017-Aug-21 06:29N 25°48' W 080°09'0 0.0
2017-Aug-21 05:59N 25°48' W 080°09'0 0.0
2017-Aug-21 05:29N 25°48' W 080°09'0 0.0
2017-Aug-21 04:56N 25°48' W 080°09'0 0.0
2017-Aug-21 04:26N 25°48' W 080°09'0 0.0
2017-Aug-21 03:59N 25°48' W 080°09'0 0.0
2017-Aug-21 03:26N 25°48' W 080°09'0 0.0
2017-Aug-21 02:59N 25°48' W 080°09'0 0.0
2017-Aug-21 02:29N 25°48' W 080°09'0 0.0
2017-Aug-21 01:59N 25°48' W 080°09'0 0.0
2017-Aug-21 01:29N 25°48' W 080°09'0 0.0
2017-Aug-21 00:59N 25°48' W 080°09'0 0.0
2017-Aug-21 00:23N 25°48' W 080°09'0 0.0
2017-Aug-20 23:53N 25°48' W 080°09'0 0.0
2017-Aug-20 23:29N 25°48' W 080°09'  

Dump ship's entire track history